sensor_id;sensor_type;location;lat;lon;timestamp;P1;durP1;ratioP1;P2;durP2;ratioP2
14381;SDS011;7275;50.328;8.720;2023-11-21T00:01:40;7.10;;;4.10;;
14381;SDS011;7275;50.328;8.720;2023-11-21T00:04:08;5.00;;;3.37;;
14381;SDS011;7275;50.328;8.720;2023-11-21T00:06:35;4.93;;;3.50;;
14381;SDS011;7275;50.328;8.720;2023-11-21T00:09:03;5.83;;;3.67;;
14381;SDS011;7275;50.328;8.720;2023-11-21T00:11:32;7.87;;;3.60;;
14381;SDS011;7275;50.328;8.720;2023-11-21T00:14:00;6.10;;;4.00;;
14381;SDS011;7275;50.328;8.720;2023-11-21T00:16:29;7.60;;;3.93;;
14381;SDS011;7275;50.328;8.720;2023-11-21T00:18:56;7.23;;;3.80;;
14381;SDS011;7275;50.328;8.720;2023-11-21T00:21:24;6.80;;;3.53;;
14381;SDS011;7275;50.328;8.720;2023-11-21T00:23:51;7.27;;;4.03;;
14381;SDS011;7275;50.328;8.720;2023-11-21T00:26:19;7.03;;;4.13;;
14381;SDS011;7275;50.328;8.720;2023-11-21T00:28:48;6.57;;;3.77;;
14381;SDS011;7275;50.328;8.720;2023-11-21T00:31:16;6.00;;;4.23;;
14381;SDS011;7275;50.328;8.720;2023-11-21T00:33:44;6.37;;;3.73;;
14381;SDS011;7275;50.328;8.720;2023-11-21T00:36:11;8.47;;;4.57;;
14381;SDS011;7275;50.328;8.720;2023-11-21T00:38:39;6.30;;;3.57;;
14381;SDS011;7275;50.328;8.720;2023-11-21T00:41:06;6.70;;;4.00;;
14381;SDS011;7275;50.328;8.720;2023-11-21T00:43:34;7.40;;;3.80;;
14381;SDS011;7275;50.328;8.720;2023-11-21T00:46:05;5.57;;;3.83;;
14381;SDS011;7275;50.328;8.720;2023-11-21T00:48:34;7.30;;;4.00;;
14381;SDS011;7275;50.328;8.720;2023-11-21T00:51:02;5.87;;;3.90;;
14381;SDS011;7275;50.328;8.720;2023-11-21T00:53:29;5.67;;;3.90;;
14381;SDS011;7275;50.328;8.720;2023-11-21T00:55:57;5.67;;;3.70;;
14381;SDS011;7275;50.328;8.720;2023-11-21T00:58:24;6.37;;;3.90;;
14381;SDS011;7275;50.328;8.720;2023-11-21T01:00:52;6.07;;;4.10;;
14381;SDS011;7275;50.328;8.720;2023-11-21T01:03:21;6.83;;;4.67;;
14381;SDS011;7275;50.328;8.720;2023-11-21T01:05:49;6.43;;;4.37;;
14381;SDS011;7275;50.328;8.720;2023-11-21T01:08:16;7.20;;;4.90;;
14381;SDS011;7275;50.328;8.720;2023-11-21T01:10:43;8.37;;;4.83;;
14381;SDS011;7275;50.328;8.720;2023-11-21T01:13:11;7.23;;;4.47;;
14381;SDS011;7275;50.328;8.720;2023-11-21T01:15:41;7.90;;;4.47;;
14381;SDS011;7275;50.328;8.720;2023-11-21T01:18:08;6.37;;;5.17;;
14381;SDS011;7275;50.328;8.720;2023-11-21T01:20:37;6.27;;;5.10;;
14381;SDS011;7275;50.328;8.720;2023-11-21T01:23:06;8.43;;;5.20;;
14381;SDS011;7275;50.328;8.720;2023-11-21T01:25:33;9.50;;;5.60;;
14381;SDS011;7275;50.328;8.720;2023-11-21T01:28:02;5.50;;;4.77;;
14381;SDS011;7275;50.328;8.720;2023-11-21T01:30:29;8.03;;;5.13;;
14381;SDS011;7275;50.328;8.720;2023-11-21T01:32:58;6.67;;;4.77;;
14381;SDS011;7275;50.328;8.720;2023-11-21T01:35:26;7.73;;;5.40;;
14381;SDS011;7275;50.328;8.720;2023-11-21T01:37:55;6.63;;;5.03;;
14381;SDS011;7275;50.328;8.720;2023-11-21T01:40:22;7.63;;;5.43;;
14381;SDS011;7275;50.328;8.720;2023-11-21T01:42:53;6.40;;;4.87;;
14381;SDS011;7275;50.328;8.720;2023-11-21T01:45:20;8.73;;;5.47;;
14381;SDS011;7275;50.328;8.720;2023-11-21T01:47:48;7.23;;;5.07;;
14381;SDS011;7275;50.328;8.720;2023-11-21T01:50:16;7.43;;;5.40;;
14381;SDS011;7275;50.328;8.720;2023-11-21T01:52:45;7.40;;;5.37;;
14381;SDS011;7275;50.328;8.720;2023-11-21T01:55:15;9.57;;;6.10;;
14381;SDS011;7275;50.328;8.720;2023-11-21T01:57:54;8.90;;;6.27;;
14381;SDS011;7275;50.328;8.720;2023-11-21T02:00:22;10.03;;;6.23;;
14381;SDS011;7275;50.328;8.720;2023-11-21T02:02:50;7.50;;;5.10;;
14381;SDS011;7275;50.328;8.720;2023-11-21T02:05:18;7.23;;;5.10;;
14381;SDS011;7275;50.328;8.720;2023-11-21T02:07:48;7.43;;;5.57;;
14381;SDS011;7275;50.328;8.720;2023-11-21T02:10:17;9.00;;;6.30;;
14381;SDS011;7275;50.328;8.720;2023-11-21T02:12:49;8.70;;;6.30;;
14381;SDS011;7275;50.328;8.720;2023-11-21T02:15:18;8.87;;;6.20;;
14381;SDS011;7275;50.328;8.720;2023-11-21T02:17:47;7.50;;;6.00;;
14381;SDS011;7275;50.328;8.720;2023-11-21T02:20:17;8.93;;;6.63;;
14381;SDS011;7275;50.328;8.720;2023-11-21T02:22:50;8.33;;;6.10;;
14381;SDS011;7275;50.328;8.720;2023-11-21T02:25:19;6.87;;;5.80;;
14381;SDS011;7275;50.328;8.720;2023-11-21T02:27:46;7.13;;;5.60;;
14381;SDS011;7275;50.328;8.720;2023-11-21T02:30:14;6.77;;;5.43;;
14381;SDS011;7275;50.328;8.720;2023-11-21T02:32:42;8.47;;;5.77;;
14381;SDS011;7275;50.328;8.720;2023-11-21T02:35:14;8.17;;;6.27;;
14381;SDS011;7275;50.328;8.720;2023-11-21T02:37:43;6.83;;;5.87;;
14381;SDS011;7275;50.328;8.720;2023-11-21T02:40:12;8.40;;;6.27;;
14381;SDS011;7275;50.328;8.720;2023-11-21T02:42:44;9.87;;;6.60;;
14381;SDS011;7275;50.328;8.720;2023-11-21T02:45:12;7.37;;;6.13;;
14381;SDS011;7275;50.328;8.720;2023-11-21T02:47:43;10.40;;;6.30;;
14381;SDS011;7275;50.328;8.720;2023-11-21T02:50:10;10.10;;;6.73;;
14381;SDS011;7275;50.328;8.720;2023-11-21T02:52:39;12.23;;;7.67;;
14381;SDS011;7275;50.328;8.720;2023-11-21T02:55:07;9.20;;;6.87;;
14381;SDS011;7275;50.328;8.720;2023-11-21T02:57:36;10.67;;;7.60;;
14381;SDS011;7275;50.328;8.720;2023-11-21T03:00:04;10.33;;;7.67;;
14381;SDS011;7275;50.328;8.720;2023-11-21T03:02:33;11.33;;;7.60;;
14381;SDS011;7275;50.328;8.720;2023-11-21T03:05:03;9.20;;;7.43;;
14381;SDS011;7275;50.328;8.720;2023-11-21T03:07:31;11.83;;;7.97;;
14381;SDS011;7275;50.328;8.720;2023-11-21T03:09:59;10.57;;;8.13;;
14381;SDS011;7275;50.328;8.720;2023-11-21T03:12:26;11.23;;;8.70;;
14381;SDS011;7275;50.328;8.720;2023-11-21T03:14:55;11.37;;;9.10;;
14381;SDS011;7275;50.328;8.720;2023-11-21T03:17:23;11.63;;;9.00;;
14381;SDS011;7275;50.328;8.720;2023-11-21T03:19:51;13.00;;;8.67;;
14381;SDS011;7275;50.328;8.720;2023-11-21T03:22:19;10.87;;;8.17;;
14381;SDS011;7275;50.328;8.720;2023-11-21T03:24:47;11.70;;;8.93;;
14381;SDS011;7275;50.328;8.720;2023-11-21T03:27:14;9.10;;;7.80;;
14381;SDS011;7275;50.328;8.720;2023-11-21T03:29:42;12.43;;;8.30;;
14381;SDS011;7275;50.328;8.720;2023-11-21T03:32:11;10.07;;;8.10;;
14381;SDS011;7275;50.328;8.720;2023-11-21T03:34:52;10.20;;;7.70;;
14381;SDS011;7275;50.328;8.720;2023-11-21T03:37:21;10.13;;;7.70;;
14381;SDS011;7275;50.328;8.720;2023-11-21T03:39:49;10.53;;;8.40;;
14381;SDS011;7275;50.328;8.720;2023-11-21T03:42:16;10.57;;;9.43;;
14381;SDS011;7275;50.328;8.720;2023-11-21T03:44:44;11.43;;;9.23;;
14381;SDS011;7275;50.328;8.720;2023-11-21T03:47:12;11.87;;;9.50;;
14381;SDS011;7275;50.328;8.720;2023-11-21T03:49:40;11.77;;;9.33;;
14381;SDS011;7275;50.328;8.720;2023-11-21T03:52:08;12.13;;;9.80;;
14381;SDS011;7275;50.328;8.720;2023-11-21T03:54:36;13.43;;;10.47;;
14381;SDS011;7275;50.328;8.720;2023-11-21T03:57:03;12.10;;;9.90;;
14381;SDS011;7275;50.328;8.720;2023-11-21T03:59:31;14.73;;;11.00;;
14381;SDS011;7275;50.328;8.720;2023-11-21T04:01:59;13.83;;;10.93;;
14381;SDS011;7275;50.328;8.720;2023-11-21T04:04:28;13.27;;;10.40;;
14381;SDS011;7275;50.328;8.720;2023-11-21T04:06:55;13.17;;;11.13;;
14381;SDS011;7275;50.328;8.720;2023-11-21T04:09:23;13.50;;;10.90;;
14381;SDS011;7275;50.328;8.720;2023-11-21T04:11:51;13.73;;;11.20;;
14381;SDS011;7275;50.328;8.720;2023-11-21T04:14:19;14.50;;;11.37;;
14381;SDS011;7275;50.328;8.720;2023-11-21T04:16:46;15.00;;;10.97;;
14381;SDS011;7275;50.328;8.720;2023-11-21T04:19:14;15.37;;;10.50;;
14381;SDS011;7275;50.328;8.720;2023-11-21T04:21:44;12.17;;;10.27;;
14381;SDS011;7275;50.328;8.720;2023-11-21T04:24:12;10.70;;;8.43;;
14381;SDS011;7275;50.328;8.720;2023-11-21T04:26:40;10.87;;;8.53;;
14381;SDS011;7275;50.328;8.720;2023-11-21T04:29:07;8.63;;;7.27;;
14381;SDS011;7275;50.328;8.720;2023-11-21T04:31:35;6.77;;;5.90;;
14381;SDS011;7275;50.328;8.720;2023-11-21T04:34:03;4.70;;;4.20;;
14381;SDS011;7275;50.328;8.720;2023-11-21T04:36:31;4.30;;;3.70;;
14381;SDS011;7275;50.328;8.720;2023-11-21T04:39:00;3.63;;;2.30;;
14381;SDS011;7275;50.328;8.720;2023-11-21T04:41:27;2.27;;;2.07;;
14381;SDS011;7275;50.328;8.720;2023-11-21T04:43:57;2.40;;;1.83;;
14381;SDS011;7275;50.328;8.720;2023-11-21T04:46:26;2.97;;;1.80;;
14381;SDS011;7275;50.328;8.720;2023-11-21T04:48:54;2.73;;;1.60;;
14381;SDS011;7275;50.328;8.720;2023-11-21T04:51:22;2.10;;;1.43;;
14381;SDS011;7275;50.328;8.720;2023-11-21T04:53:49;2.83;;;1.50;;
14381;SDS011;7275;50.328;8.720;2023-11-21T04:56:18;1.77;;;1.20;;
14381;SDS011;7275;50.328;8.720;2023-11-21T04:58:46;1.47;;;1.20;;
14381;SDS011;7275;50.328;8.720;2023-11-21T05:01:13;2.97;;;1.13;;
14381;SDS011;7275;50.328;8.720;2023-11-21T05:03:41;2.17;;;1.23;;
14381;SDS011;7275;50.328;8.720;2023-11-21T05:06:09;1.30;;;1.20;;
14381;SDS011;7275;50.328;8.720;2023-11-21T05:08:37;1.20;;;1.07;;
14381;SDS011;7275;50.328;8.720;2023-11-21T05:11:04;1.20;;;1.10;;
14381;SDS011;7275;50.328;8.720;2023-11-21T05:13:34;1.57;;;1.20;;
14381;SDS011;7275;50.328;8.720;2023-11-21T05:16:03;1.23;;;1.13;;
14381;SDS011;7275;50.328;8.720;2023-11-21T05:18:32;1.67;;;1.20;;
14381;SDS011;7275;50.328;8.720;2023-11-21T05:21:01;1.63;;;1.50;;
14381;SDS011;7275;50.328;8.720;2023-11-21T05:23:29;2.60;;;1.70;;
14381;SDS011;7275;50.328;8.720;2023-11-21T05:25:57;1.93;;;1.70;;
14381;SDS011;7275;50.328;8.720;2023-11-21T05:28:24;2.37;;;2.17;;
14381;SDS011;7275;50.328;8.720;2023-11-21T05:30:53;2.40;;;2.20;;
14381;SDS011;7275;50.328;8.720;2023-11-21T05:33:35;4.97;;;2.87;;
14381;SDS011;7275;50.328;8.720;2023-11-21T05:36:03;5.00;;;3.77;;
14381;SDS011;7275;50.328;8.720;2023-11-21T05:38:34;5.50;;;4.83;;
14381;SDS011;7275;50.328;8.720;2023-11-21T05:41:02;5.67;;;5.00;;
14381;SDS011;7275;50.328;8.720;2023-11-21T05:43:30;5.97;;;5.13;;
14381;SDS011;7275;50.328;8.720;2023-11-21T05:46:00;6.73;;;5.53;;
14381;SDS011;7275;50.328;8.720;2023-11-21T05:48:27;6.77;;;6.07;;
14381;SDS011;7275;50.328;8.720;2023-11-21T05:50:55;7.07;;;6.37;;
14381;SDS011;7275;50.328;8.720;2023-11-21T05:53:22;9.57;;;7.07;;
14381;SDS011;7275;50.328;8.720;2023-11-21T05:55:50;7.57;;;6.87;;
14381;SDS011;7275;50.328;8.720;2023-11-21T05:58:18;7.63;;;6.93;;
14381;SDS011;7275;50.328;8.720;2023-11-21T06:00:46;8.53;;;7.00;;
14381;SDS011;7275;50.328;8.720;2023-11-21T06:03:15;7.97;;;6.83;;
14381;SDS011;7275;50.328;8.720;2023-11-21T06:05:43;8.73;;;7.10;;
14381;SDS011;7275;50.328;8.720;2023-11-21T06:08:11;8.87;;;7.90;;
14381;SDS011;7275;50.328;8.720;2023-11-21T06:10:38;8.93;;;8.03;;
14381;SDS011;7275;50.328;8.720;2023-11-21T06:13:06;9.90;;;8.27;;
14381;SDS011;7275;50.328;8.720;2023-11-21T06:15:34;10.47;;;9.10;;
14381;SDS011;7275;50.328;8.720;2023-11-21T06:18:01;9.37;;;8.47;;
14381;SDS011;7275;50.328;8.720;2023-11-21T06:20:30;9.30;;;8.33;;
14381;SDS011;7275;50.328;8.720;2023-11-21T06:22:58;9.33;;;7.83;;
14381;SDS011;7275;50.328;8.720;2023-11-21T06:25:29;9.33;;;8.30;;
14381;SDS011;7275;50.328;8.720;2023-11-21T06:27:59;10.67;;;8.20;;
14381;SDS011;7275;50.328;8.720;2023-11-21T06:30:26;9.30;;;7.97;;
14381;SDS011;7275;50.328;8.720;2023-11-21T06:32:55;10.47;;;8.03;;
14381;SDS011;7275;50.328;8.720;2023-11-21T06:35:22;11.17;;;8.90;;
14381;SDS011;7275;50.328;8.720;2023-11-21T06:37:51;11.90;;;8.73;;
14381;SDS011;7275;50.328;8.720;2023-11-21T06:40:19;10.40;;;9.13;;
14381;SDS011;7275;50.328;8.720;2023-11-21T06:42:48;9.57;;;8.50;;
14381;SDS011;7275;50.328;8.720;2023-11-21T06:45:16;10.20;;;9.07;;
14381;SDS011;7275;50.328;8.720;2023-11-21T06:47:43;10.10;;;8.60;;
14381;SDS011;7275;50.328;8.720;2023-11-21T06:50:12;11.13;;;9.50;;
14381;SDS011;7275;50.328;8.720;2023-11-21T06:52:39;12.77;;;10.00;;
14381;SDS011;7275;50.328;8.720;2023-11-21T06:55:08;11.57;;;10.10;;
14381;SDS011;7275;50.328;8.720;2023-11-21T06:57:37;15.67;;;12.93;;
14381;SDS011;7275;50.328;8.720;2023-11-21T07:00:05;15.33;;;11.63;;
14381;SDS011;7275;50.328;8.720;2023-11-21T07:02:35;15.97;;;13.47;;
14381;SDS011;7275;50.328;8.720;2023-11-21T07:05:03;21.13;;;13.63;;
14381;SDS011;7275;50.328;8.720;2023-11-21T07:07:32;12.03;;;10.70;;
14381;SDS011;7275;50.328;8.720;2023-11-21T07:10:01;11.20;;;9.83;;
14381;SDS011;7275;50.328;8.720;2023-11-21T07:12:31;13.27;;;10.00;;
14381;SDS011;7275;50.328;8.720;2023-11-21T07:14:58;10.27;;;8.93;;
14381;SDS011;7275;50.328;8.720;2023-11-21T07:17:26;10.13;;;8.50;;
14381;SDS011;7275;50.328;8.720;2023-11-21T07:19:54;9.83;;;8.00;;
14381;SDS011;7275;50.328;8.720;2023-11-21T07:22:21;9.43;;;7.27;;
14381;SDS011;7275;50.328;8.720;2023-11-21T07:24:49;10.17;;;8.47;;
14381;SDS011;7275;50.328;8.720;2023-11-21T07:27:17;9.87;;;7.83;;
14381;SDS011;7275;50.328;8.720;2023-11-21T07:29:47;10.20;;;8.20;;
14381;SDS011;7275;50.328;8.720;2023-11-21T07:32:15;9.50;;;8.10;;
14381;SDS011;7275;50.328;8.720;2023-11-21T07:34:43;10.70;;;7.50;;
14381;SDS011;7275;50.328;8.720;2023-11-21T07:37:10;8.90;;;6.97;;
14381;SDS011;7275;50.328;8.720;2023-11-21T07:39:38;8.70;;;7.27;;
14381;SDS011;7275;50.328;8.720;2023-11-21T07:42:08;9.60;;;7.23;;
14381;SDS011;7275;50.328;8.720;2023-11-21T07:44:37;10.17;;;8.40;;
14381;SDS011;7275;50.328;8.720;2023-11-21T07:47:06;10.93;;;8.03;;
14381;SDS011;7275;50.328;8.720;2023-11-21T07:49:33;8.30;;;7.37;;
14381;SDS011;7275;50.328;8.720;2023-11-21T07:52:01;8.73;;;7.10;;
14381;SDS011;7275;50.328;8.720;2023-11-21T07:54:29;9.07;;;7.30;;
14381;SDS011;7275;50.328;8.720;2023-11-21T07:56:57;10.33;;;7.50;;
14381;SDS011;7275;50.328;8.720;2023-11-21T07:59:24;9.70;;;7.47;;
14381;SDS011;7275;50.328;8.720;2023-11-21T08:01:52;9.37;;;7.50;;
14381;SDS011;7275;50.328;8.720;2023-11-21T08:04:21;8.83;;;6.80;;
14381;SDS011;7275;50.328;8.720;2023-11-21T08:06:49;8.90;;;7.47;;
14381;SDS011;7275;50.328;8.720;2023-11-21T08:09:17;9.03;;;6.97;;
14381;SDS011;7275;50.328;8.720;2023-11-21T08:11:44;9.97;;;7.37;;
14381;SDS011;7275;50.328;8.720;2023-11-21T08:14:12;10.07;;;7.40;;
14381;SDS011;7275;50.328;8.720;2023-11-21T08:16:41;9.20;;;6.90;;
14381;SDS011;7275;50.328;8.720;2023-11-21T08:19:08;9.53;;;7.33;;
14381;SDS011;7275;50.328;8.720;2023-11-21T08:21:37;9.57;;;7.80;;
14381;SDS011;7275;50.328;8.720;2023-11-21T08:24:06;10.00;;;7.93;;
14381;SDS011;7275;50.328;8.720;2023-11-21T08:26:36;12.90;;;8.73;;
14381;SDS011;7275;50.328;8.720;2023-11-21T08:29:04;11.27;;;8.37;;
14381;SDS011;7275;50.328;8.720;2023-11-21T08:31:33;9.97;;;6.97;;
14381;SDS011;7275;50.328;8.720;2023-11-21T08:34:00;9.30;;;7.23;;
14381;SDS011;7275;50.328;8.720;2023-11-21T08:36:29;8.03;;;7.00;;
14381;SDS011;7275;50.328;8.720;2023-11-21T08:38:59;9.10;;;7.37;;
14381;SDS011;7275;50.328;8.720;2023-11-21T08:41:27;7.87;;;6.70;;
14381;SDS011;7275;50.328;8.720;2023-11-21T08:43:55;9.87;;;7.10;;
14381;SDS011;7275;50.328;8.720;2023-11-21T08:46:24;9.43;;;6.50;;
14381;SDS011;7275;50.328;8.720;2023-11-21T08:48:52;8.73;;;7.17;;
14381;SDS011;7275;50.328;8.720;2023-11-21T08:51:19;8.33;;;6.40;;
14381;SDS011;7275;50.328;8.720;2023-11-21T08:53:47;8.87;;;6.70;;
14381;SDS011;7275;50.328;8.720;2023-11-21T08:56:16;7.50;;;6.20;;
14381;SDS011;7275;50.328;8.720;2023-11-21T08:58:44;7.90;;;6.00;;
14381;SDS011;7275;50.328;8.720;2023-11-21T09:01:13;8.20;;;5.83;;
14381;SDS011;7275;50.328;8.720;2023-11-21T09:03:40;6.77;;;5.50;;
14381;SDS011;7275;50.328;8.720;2023-11-21T09:06:09;6.17;;;4.73;;
14381;SDS011;7275;50.328;8.720;2023-11-21T09:08:40;7.27;;;4.97;;
14381;SDS011;7275;50.328;8.720;2023-11-21T09:11:08;5.17;;;4.30;;
14381;SDS011;7275;50.328;8.720;2023-11-21T09:13:37;6.27;;;4.07;;
14381;SDS011;7275;50.328;8.720;2023-11-21T09:16:04;5.65;;;4.40;;
14381;SDS011;7275;50.328;8.720;2023-11-21T09:18:32;7.45;;;4.55;;
14381;SDS011;7275;50.328;8.720;2023-11-21T09:21:00;4.47;;;4.05;;
14381;SDS011;7275;50.328;8.720;2023-11-21T09:23:28;7.20;;;4.00;;
14381;SDS011;7275;50.328;8.720;2023-11-21T09:25:55;4.38;;;3.97;;
14381;SDS011;7275;50.328;8.720;2023-11-21T09:28:23;6.43;;;3.95;;
14381;SDS011;7275;50.328;8.720;2023-11-21T09:30:52;5.53;;;3.60;;
14381;SDS011;7275;50.328;8.720;2023-11-21T09:33:20;5.43;;;3.58;;
14381;SDS011;7275;50.328;8.720;2023-11-21T09:35:48;5.38;;;3.83;;
14381;SDS011;7275;50.328;8.720;2023-11-21T09:38:17;4.53;;;3.80;;
14381;SDS011;7275;50.328;8.720;2023-11-21T09:40:45;5.28;;;3.67;;
14381;SDS011;7275;50.328;8.720;2023-11-21T09:43:15;5.40;;;3.90;;
14381;SDS011;7275;50.328;8.720;2023-11-21T09:45:45;4.93;;;3.80;;
14381;SDS011;7275;50.328;8.720;2023-11-21T09:48:16;5.03;;;3.60;;
14381;SDS011;7275;50.328;8.720;2023-11-21T09:50:44;5.80;;;3.70;;
14381;SDS011;7275;50.328;8.720;2023-11-21T09:53:18;4.13;;;3.15;;
14381;SDS011;7275;50.328;8.720;2023-11-21T09:55:48;4.03;;;2.97;;
14381;SDS011;7275;50.328;8.720;2023-11-21T09:58:17;4.30;;;2.97;;
14381;SDS011;7275;50.328;8.720;2023-11-21T10:00:46;4.40;;;3.15;;
14381;SDS011;7275;50.328;8.720;2023-11-21T10:03:16;5.43;;;3.00;;
14381;SDS011;7275;50.328;8.720;2023-11-21T10:05:44;5.47;;;3.15;;
14381;SDS011;7275;50.328;8.720;2023-11-21T10:08:13;5.13;;;3.30;;
14381;SDS011;7275;50.328;8.720;2023-11-21T10:10:42;5.63;;;3.53;;
14381;SDS011;7275;50.328;8.720;2023-11-21T10:13:12;5.40;;;4.00;;
14381;SDS011;7275;50.328;8.720;2023-11-21T10:15:43;5.03;;;3.70;;
14381;SDS011;7275;50.328;8.720;2023-11-21T10:18:17;7.18;;;4.38;;
14381;SDS011;7275;50.328;8.720;2023-11-21T10:20:45;4.82;;;3.47;;
14381;SDS011;7275;50.328;8.720;2023-11-21T10:23:18;5.03;;;3.75;;
14381;SDS011;7275;50.328;8.720;2023-11-21T10:25:47;4.60;;;3.50;;
14381;SDS011;7275;50.328;8.720;2023-11-21T10:28:15;4.00;;;3.60;;
14381;SDS011;7275;50.328;8.720;2023-11-21T10:30:43;6.07;;;3.28;;
14381;SDS011;7275;50.328;8.720;2023-11-21T10:33:11;4.93;;;3.20;;
14381;SDS011;7275;50.328;8.720;2023-11-21T10:35:41;5.22;;;3.55;;
14381;SDS011;7275;50.328;8.720;2023-11-21T10:38:13;4.97;;;3.70;;
14381;SDS011;7275;50.328;8.720;2023-11-21T10:40:41;4.57;;;3.03;;
14381;SDS011;7275;50.328;8.720;2023-11-21T10:43:09;7.95;;;3.50;;
14381;SDS011;7275;50.328;8.720;2023-11-21T10:45:37;4.38;;;3.20;;
14381;SDS011;7275;50.328;8.720;2023-11-21T10:48:05;4.88;;;3.33;;
14381;SDS011;7275;50.328;8.720;2023-11-21T10:50:34;4.70;;;3.47;;
14381;SDS011;7275;50.328;8.720;2023-11-21T10:53:04;3.85;;;3.22;;
14381;SDS011;7275;50.328;8.720;2023-11-21T10:55:32;4.95;;;3.60;;
14381;SDS011;7275;50.328;8.720;2023-11-21T10:58:00;4.47;;;3.45;;
14381;SDS011;7275;50.328;8.720;2023-11-21T11:00:29;5.40;;;3.78;;
14381;SDS011;7275;50.328;8.720;2023-11-21T11:02:57;4.88;;;3.63;;
14381;SDS011;7275;50.328;8.720;2023-11-21T11:05:27;4.05;;;3.38;;
14381;SDS011;7275;50.328;8.720;2023-11-21T11:07:58;4.35;;;3.30;;
14381;SDS011;7275;50.328;8.720;2023-11-21T11:10:28;4.35;;;3.63;;
14381;SDS011;7275;50.328;8.720;2023-11-21T11:12:56;5.47;;;3.43;;
14381;SDS011;7275;50.328;8.720;2023-11-21T11:15:25;5.70;;;3.47;;
14381;SDS011;7275;50.328;8.720;2023-11-21T11:17:54;5.33;;;3.67;;
14381;SDS011;7275;50.328;8.720;2023-11-21T11:20:24;7.17;;;3.77;;
14381;SDS011;7275;50.328;8.720;2023-11-21T11:23:04;5.40;;;3.60;;
14381;SDS011;7275;50.328;8.720;2023-11-21T11:25:49;4.63;;;3.63;;
14381;SDS011;7275;50.328;8.720;2023-11-21T11:28:27;5.87;;;3.80;;
14381;SDS011;7275;50.328;8.720;2023-11-21T11:31:04;6.73;;;4.00;;
14381;SDS011;7275;50.328;8.720;2023-11-21T11:33:39;5.97;;;4.00;;
14381;SDS011;7275;50.328;8.720;2023-11-21T11:36:13;6.53;;;3.80;;
14381;SDS011;7275;50.328;8.720;2023-11-21T11:38:45;5.13;;;3.70;;
14381;SDS011;7275;50.328;8.720;2023-11-21T11:41:25;5.53;;;3.60;;
14381;SDS011;7275;50.328;8.720;2023-11-21T11:43:54;5.93;;;3.63;;
14381;SDS011;7275;50.328;8.720;2023-11-21T11:46:27;5.07;;;3.70;;
14381;SDS011;7275;50.328;8.720;2023-11-21T11:49:08;5.73;;;4.03;;
14381;SDS011;7275;50.328;8.720;2023-11-21T11:51:36;6.37;;;3.73;;
14381;SDS011;7275;50.328;8.720;2023-11-21T11:54:03;6.17;;;3.57;;
14381;SDS011;7275;50.328;8.720;2023-11-21T11:56:35;6.57;;;4.20;;
14381;SDS011;7275;50.328;8.720;2023-11-21T11:59:04;6.30;;;3.77;;
14381;SDS011;7275;50.328;8.720;2023-11-21T12:01:35;5.60;;;3.73;;
14381;SDS011;7275;50.328;8.720;2023-11-21T12:07:00;5.53;;;3.70;;
14381;SDS011;7275;50.328;8.720;2023-11-21T12:09:30;5.47;;;3.97;;
14381;SDS011;7275;50.328;8.720;2023-11-21T12:12:00;6.63;;;4.37;;
14381;SDS011;7275;50.328;8.720;2023-11-21T12:14:29;5.30;;;4.17;;
14381;SDS011;7275;50.328;8.720;2023-11-21T12:16:58;5.67;;;4.10;;
14381;SDS011;7275;50.328;8.720;2023-11-21T12:19:26;7.90;;;3.93;;
14381;SDS011;7275;50.328;8.720;2023-11-21T12:21:53;5.57;;;3.60;;
14381;SDS011;7275;50.328;8.720;2023-11-21T12:24:22;6.10;;;3.93;;
14381;SDS011;7275;50.328;8.720;2023-11-21T12:26:50;7.30;;;4.17;;
14381;SDS011;7275;50.328;8.720;2023-11-21T12:29:18;6.20;;;4.13;;
14381;SDS011;7275;50.328;8.720;2023-11-21T12:31:48;5.20;;;3.97;;
14381;SDS011;7275;50.328;8.720;2023-11-21T12:34:16;7.10;;;4.00;;
14381;SDS011;7275;50.328;8.720;2023-11-21T12:36:45;8.60;;;3.73;;
14381;SDS011;7275;50.328;8.720;2023-11-21T12:39:13;4.60;;;4.10;;
14381;SDS011;7275;50.328;8.720;2023-11-21T12:41:40;5.60;;;4.10;;
14381;SDS011;7275;50.328;8.720;2023-11-21T12:44:09;6.70;;;3.73;;
14381;SDS011;7275;50.328;8.720;2023-11-21T12:46:41;4.50;;;3.40;;
14381;SDS011;7275;50.328;8.720;2023-11-21T12:49:11;5.47;;;3.80;;
14381;SDS011;7275;50.328;8.720;2023-11-21T12:51:43;6.83;;;3.53;;
14381;SDS011;7275;50.328;8.720;2023-11-21T12:54:12;5.67;;;4.07;;
14381;SDS011;7275;50.328;8.720;2023-11-21T12:56:40;6.13;;;3.90;;
14381;SDS011;7275;50.328;8.720;2023-11-21T12:59:07;5.83;;;3.70;;
14381;SDS011;7275;50.328;8.720;2023-11-21T13:01:43;6.70;;;4.03;;
14381;SDS011;7275;50.328;8.720;2023-11-21T13:04:11;6.27;;;4.23;;
14381;SDS011;7275;50.328;8.720;2023-11-21T13:06:39;7.13;;;4.53;;
14381;SDS011;7275;50.328;8.720;2023-11-21T13:09:07;6.80;;;5.37;;
14381;SDS011;7275;50.328;8.720;2023-11-21T13:11:36;8.80;;;6.30;;
14381;SDS011;7275;50.328;8.720;2023-11-21T13:14:06;7.13;;;4.63;;
14381;SDS011;7275;50.328;8.720;2023-11-21T13:16:36;5.83;;;3.63;;
14381;SDS011;7275;50.328;8.720;2023-11-21T13:19:06;6.97;;;3.73;;
14381;SDS011;7275;50.328;8.720;2023-11-21T13:21:34;5.37;;;3.30;;
14381;SDS011;7275;50.328;8.720;2023-11-21T13:24:02;6.80;;;3.70;;
14381;SDS011;7275;50.328;8.720;2023-11-21T13:26:31;5.00;;;3.27;;
14381;SDS011;7275;50.328;8.720;2023-11-21T13:28:59;6.80;;;4.57;;
14381;SDS011;7275;50.328;8.720;2023-11-21T13:31:27;6.93;;;4.70;;
14381;SDS011;7275;50.328;8.720;2023-11-21T13:33:58;6.77;;;4.23;;
14381;SDS011;7275;50.328;8.720;2023-11-21T13:36:32;10.07;;;4.10;;
14381;SDS011;7275;50.328;8.720;2023-11-21T13:39:02;5.53;;;3.97;;
14381;SDS011;7275;50.328;8.720;2023-11-21T13:41:33;6.73;;;3.90;;
14381;SDS011;7275;50.328;8.720;2023-11-21T13:44:01;6.17;;;4.07;;
14381;SDS011;7275;50.328;8.720;2023-11-21T13:46:41;6.97;;;4.07;;
14381;SDS011;7275;50.328;8.720;2023-11-21T13:49:10;6.93;;;4.17;;
14381;SDS011;7275;50.328;8.720;2023-11-21T13:51:39;6.93;;;3.87;;
14381;SDS011;7275;50.328;8.720;2023-11-21T13:54:11;8.43;;;3.87;;
14381;SDS011;7275;50.328;8.720;2023-11-21T13:56:38;6.53;;;3.70;;
14381;SDS011;7275;50.328;8.720;2023-11-21T13:59:07;6.13;;;4.03;;
14381;SDS011;7275;50.328;8.720;2023-11-21T14:01:44;6.67;;;3.90;;
14381;SDS011;7275;50.328;8.720;2023-11-21T14:04:23;6.50;;;4.17;;
14381;SDS011;7275;50.328;8.720;2023-11-21T14:07:09;5.77;;;3.97;;
14381;SDS011;7275;50.328;8.720;2023-11-21T14:09:51;7.80;;;4.03;;
14381;SDS011;7275;50.328;8.720;2023-11-21T14:12:19;6.13;;;4.27;;
14381;SDS011;7275;50.328;8.720;2023-11-21T14:14:46;6.47;;;4.30;;
14381;SDS011;7275;50.328;8.720;2023-11-21T14:17:15;7.20;;;4.40;;
14381;SDS011;7275;50.328;8.720;2023-11-21T14:19:42;7.97;;;5.60;;
14381;SDS011;7275;50.328;8.720;2023-11-21T14:22:12;7.63;;;5.90;;
14381;SDS011;7275;50.328;8.720;2023-11-21T14:24:39;8.40;;;5.47;;
14381;SDS011;7275;50.328;8.720;2023-11-21T14:27:12;10.27;;;5.27;;
14381;SDS011;7275;50.328;8.720;2023-11-21T14:29:41;8.27;;;5.43;;
14381;SDS011;7275;50.328;8.720;2023-11-21T14:32:11;7.60;;;4.80;;
14381;SDS011;7275;50.328;8.720;2023-11-21T14:34:40;6.87;;;5.10;;
14381;SDS011;7275;50.328;8.720;2023-11-21T14:37:12;6.57;;;5.07;;
14381;SDS011;7275;50.328;8.720;2023-11-21T14:39:40;6.87;;;4.73;;
14381;SDS011;7275;50.328;8.720;2023-11-21T14:42:11;6.17;;;4.63;;
14381;SDS011;7275;50.328;8.720;2023-11-21T14:44:41;6.53;;;4.50;;
14381;SDS011;7275;50.328;8.720;2023-11-21T14:47:08;8.00;;;4.60;;
14381;SDS011;7275;50.328;8.720;2023-11-21T14:49:41;7.40;;;4.70;;
14381;SDS011;7275;50.328;8.720;2023-11-21T14:52:20;9.60;;;5.00;;
14381;SDS011;7275;50.328;8.720;2023-11-21T14:55:01;7.33;;;4.67;;
14381;SDS011;7275;50.328;8.720;2023-11-21T14:57:52;5.80;;;3.50;;
14381;SDS011;7275;50.328;8.720;2023-11-21T15:00:20;5.70;;;3.13;;
14381;SDS011;7275;50.328;8.720;2023-11-21T15:03:11;5.77;;;3.80;;
14381;SDS011;7275;50.328;8.720;2023-11-21T15:05:53;5.30;;;3.53;;
14381;SDS011;7275;50.328;8.720;2023-11-21T15:08:22;5.87;;;3.73;;
14381;SDS011;7275;50.328;8.720;2023-11-21T15:10:54;6.83;;;3.90;;
14381;SDS011;7275;50.328;8.720;2023-11-21T15:13:22;5.80;;;4.10;;